Time;durP1;ratioP1;P1;durP2;ratioP2;P2;SDS_P1;SDS_P2;PMS_P1;PMS_P2;Temp;Humidity;BMP_temperature;BMP_pressure;BME280_temperature;BME280_humidity;BME280_pressure;Samples;Min_cycle;Max_cycle;Signal;HPM_P1;HPM_P2
2022/07/02 00:01:51;;;;;;;;;2.00;2.00;;;;;17.88;100.00;101647.25;5074193;27;45714;-75
2022/07/02 00:04:21;;;;;;;;;4.33;3.00;;;;;17.88;100.00;101661.13;5076040;27;45511;-73
2022/07/02 00:06:49;;;;;;;;;2.67;2.67;;;;;17.85;100.00;101656.88;5072312;27;45312;-73
2022/07/02 00:09:15;;;;;;;;;4.00;2.00;;;;;17.83;100.00;101659.88;5051762;27;45787;-74
2022/07/02 00:11:43;;;;;;;;;3.33;3.33;;;;;17.81;100.00;101658.44;5074758;27;45677;-75
2022/07/02 00:14:09;;;;;;;;;3.00;3.00;;;;;17.82;100.00;101658.19;5083630;27;45491;-75
2022/07/02 00:16:35;;;;;;;;;3.67;3.67;;;;;17.83;100.00;101662.66;5088630;27;45325;-74
2022/07/02 00:19:01;;;;;;;;;2.33;2.33;;;;;17.80;100.00;101659.53;5068295;27;45957;-75
2022/07/02 00:21:27;;;;;;;;;7.33;3.67;;;;;17.77;100.00;101658.06;5091925;27;45511;-76
2022/07/02 00:23:52;;;;;;;;;3.00;2.00;;;;;17.75;100.00;101662.97;5066438;27;45369;-76
2022/07/02 00:26:26;;;;;;;;;3.33;2.00;;;;;17.69;100.00;101655.59;5073175;28;46132;-71
2022/07/02 00:29:02;;;;;;;;;3.00;3.00;;;;;17.70;100.00;101667.56;5044331;28;46233;-74
2022/07/02 00:31:27;;;;;;;;;4.00;3.00;;;;;17.67;100.00;101665.25;5072379;28;45462;-71
2022/07/02 00:33:54;;;;;;;;;3.67;2.67;;;;;17.63;100.00;101657.41;5051814;28;45484;-74
2022/07/02 00:36:23;;;;;;;;;5.00;4.00;;;;;17.64;100.00;101666.56;5069612;27;45779;-73
2022/07/02 00:38:50;;;;;;;;;3.67;3.00;;;;;17.62;100.00;101666.78;5059814;27;45480;-71
2022/07/02 00:41:17;;;;;;;;;2.33;2.33;;;;;17.59;100.00;101667.25;5073213;27;45334;-71
2022/07/02 00:43:44;;;;;;;;;3.00;2.00;;;;;17.57;100.00;101658.31;5072074;27;45736;-72
2022/07/02 00:46:11;;;;;;;;;3.33;3.33;;;;;17.55;100.00;101659.66;5073808;27;45396;-70
2022/07/02 00:48:37;;;;;;;;;5.00;3.00;;;;;17.52;100.00;101669.28;5072823;27;45704;-69
2022/07/02 00:51:03;;;;;;;;;3.00;1.33;;;;;17.51;100.00;101663.97;5062521;27;46931;-71
2022/07/02 00:53:28;;;;;;;;;3.00;3.00;;;;;17.47;100.00;101660.81;5070767;28;45362;-75
2022/07/02 00:55:55;;;;;;;;;2.00;2.00;;;;;17.47;100.00;101664.44;5071695;27;45706;-74
2022/07/02 00:58:21;;;;;;;;;3.00;3.00;;;;;17.40;100.00;101658.09;5069194;27;45789;-73
2022/07/02 01:00:48;;;;;;;;;4.00;3.00;;;;;17.39;100.00;101661.94;5059661;28;46184;-75
2022/07/02 01:03:16;;;;;;;;;4.00;2.67;;;;;17.33;100.00;101650.97;5055652;27;45698;-74
2022/07/02 01:05:41;;;;;;;;;5.00;2.67;;;;;17.32;100.00;101666.75;5052534;28;45295;-74
2022/07/02 01:10:52;;;;;;;;;2.00;2.00;;;;;17.29;100.00;101662.50;5062618;28;46748;-71
2022/07/02 01:13:18;;;;;;;;;2.67;2.67;;;;;17.26;100.00;101667.66;5058984;27;45694;-72
2022/07/02 01:15:43;;;;;;;;;4.67;3.00;;;;;17.23;100.00;101662.56;5074032;27;45420;-74
2022/07/02 01:18:10;;;;;;;;;3.00;3.00;;;;;17.20;100.00;101657.50;5073361;27;45647;-74
2022/07/02 01:20:36;;;;;;;;;3.33;3.33;;;;;17.18;100.00;101670.75;5073667;27;45330;-75
2022/07/02 01:23:03;;;;;;;;;5.00;3.00;;;;;17.17;100.00;101669.91;5055213;28;45602;-75
2022/07/02 01:25:28;;;;;;;;;3.00;3.00;;;;;17.14;100.00;101670.38;5064166;27;45744;-75
2022/07/02 01:27:53;;;;;;;;;2.00;2.00;;;;;17.11;100.00;101676.34;5068394;28;46066;-74
2022/07/02 01:30:19;;;;;;;;;2.33;2.33;;;;;17.08;100.00;101679.59;5069426;27;46105;-75
2022/07/02 01:32:45;;;;;;;;;1.00;1.00;;;;;17.00;100.00;101669.66;5072079;27;45422;-74
2022/07/02 01:35:10;;;;;;;;;4.00;3.00;;;;;17.02;100.00;101689.69;5073636;27;45690;-75
2022/07/02 01:37:40;;;;;;;;;2.00;2.00;;;;;16.97;100.00;101686.72;5072248;27;45561;-72
2022/07/02 01:40:07;;;;;;;;;3.00;3.00;;;;;16.94;100.00;101685.25;5078084;27;46960;-71
2022/07/02 01:42:33;;;;;;;;;5.33;3.67;;;;;16.92;100.00;101683.81;5073255;27;45612;-70
2022/07/02 01:44:58;;;;;;;;;3.67;3.67;;;;;16.87;100.00;101680.88;5054940;28;45806;-71
2022/07/02 01:47:25;;;;;;;;;5.67;4.33;;;;;16.88;100.00;101688.94;5068931;27;45680;-70
2022/07/02 01:49:50;;;;;;;;;3.33;2.67;;;;;16.87;100.00;101683.63;5062237;27;45974;-72
2022/07/02 01:52:16;;;;;;;;;3.00;3.00;;;;;16.85;100.00;101692.16;5072676;27;45854;-70
2022/07/02 01:54:42;;;;;;;;;5.33;4.33;;;;;16.84;100.00;101684.06;5074121;27;45429;-70
2022/07/02 01:57:08;;;;;;;;;3.67;3.67;;;;;16.82;100.00;101686.22;5070121;27;45447;-69
2022/07/02 01:59:34;;;;;;;;;3.00;3.00;;;;;16.81;100.00;101679.84;5076391;27;45832;-70
2022/07/02 02:02:01;;;;;;;;;2.33;2.33;;;;;16.79;100.00;101686.69;5078221;27;45805;-71
2022/07/02 02:04:26;;;;;;;;;3.00;3.00;;;;;16.76;100.00;101691.56;5065095;27;45980;-71
2022/07/02 02:06:52;;;;;;;;;5.00;3.67;;;;;16.66;100.00;101662.72;5063989;28;45632;-71
2022/07/02 02:09:17;;;;;;;;;6.67;3.33;;;;;16.71;100.00;101685.03;5072335;27;45985;-70
2022/07/02 02:11:43;;;;;;;;;3.00;3.00;;;;;16.71;100.00;101683.13;5062664;27;45600;-71
2022/07/02 02:14:08;;;;;;;;;3.00;3.00;;;;;16.68;100.00;101674.44;5064906;27;46724;-71
2022/07/02 02:16:34;;;;;;;;;2.33;2.33;;;;;16.64;100.00;101670.41;5074634;27;45382;-70
2022/07/02 02:19:00;;;;;;;;;3.00;3.00;;;;;16.63;100.00;101675.09;5071111;28;45449;-71
2022/07/02 02:21:27;;;;;;;;;3.33;3.33;;;;;16.61;100.00;101670.88;5069950;27;45474;-70
2022/07/02 02:23:54;;;;;;;;;4.67;4.67;;;;;16.59;100.00;101668.31;5080710;27;45395;-70
2022/07/02 02:26:20;;;;;;;;;4.67;3.00;;;;;16.60;100.00;101672.75;5080066;27;45652;-72
2022/07/02 02:28:45;;;;;;;;;3.67;3.67;;;;;16.59;100.00;101671.09;5085065;27;46460;-70
2022/07/02 02:31:10;;;;;;;;;6.00;3.00;;;;;16.57;100.00;101668.53;5057912;27;46082;-70
2022/07/02 02:33:36;;;;;;;;;5.67;4.00;;;;;16.57;100.00;101667.69;5076531;27;45431;-69
2022/07/02 02:36:02;;;;;;;;;4.33;4.00;;;;;16.55;100.00;101665.13;5058437;28;45693;-70
2022/07/02 02:38:27;;;;;;;;;4.00;4.00;;;;;16.52;100.00;101667.53;5072374;27;46678;-70
2022/07/02 02:40:53;;;;;;;;;3.00;3.00;;;;;16.49;100.00;101673.50;5073701;27;45362;-69
2022/07/02 02:43:19;;;;;;;;;4.00;4.00;;;;;16.45;100.00;101666.72;5074453;28;45662;-71
2022/07/02 02:45:44;;;;;;;;;4.00;3.00;;;;;16.41;100.00;101655.28;5069522;28;45803;-70
2022/07/02 02:48:10;;;;;;;;;4.67;4.67;;;;;16.44;100.00;101670.56;5061335;28;46634;-71
2022/07/02 02:50:35;;;;;;;;;6.33;6.33;;;;;16.41;100.00;101667.19;5072942;28;45360;-71
2022/07/02 02:53:01;;;;;;;;;3.67;2.67;;;;;16.42;100.00;101666.13;5076272;28;45797;-70
2022/07/02 02:55:27;;;;;;;;;5.33;4.00;;;;;16.40;100.00;101662.72;5076056;28;45495;-71
2022/07/02 02:57:52;;;;;;;;;4.33;4.00;;;;;16.32;100.00;101648.31;5055987;28;46937;-69
2022/07/02 03:00:18;;;;;;;;;4.67;3.67;;;;;16.40;100.00;101665.47;5076526;28;45867;-70
2022/07/02 03:02:43;;;;;;;;;6.33;5.00;;;;;16.39;100.00;101663.78;5075757;28;45369;-71
2022/07/02 03:05:09;;;;;;;;;5.00;4.00;;;;;16.34;100.00;101655.31;5065529;28;45995;-71
2022/07/02 03:07:34;;;;;;;;;6.00;6.00;;;;;16.35;100.00;101668.09;5049711;28;46053;-70
2022/07/02 03:10:00;;;;;;;;;7.33;7.33;;;;;16.28;100.00;101670.03;5074973;27;45658;-71
2022/07/02 03:12:25;;;;;;;;;7.67;5.33;;;;;16.27;100.00;101667.50;5081347;27;45338;-71
2022/07/02 03:14:51;;;;;;;;;3.00;3.00;;;;;16.26;100.00;101674.97;5081141;27;45623;-71
2022/07/02 03:17:17;;;;;;;;;5.67;4.00;;;;;16.22;100.00;101666.25;5069376;27;46945;-72
2022/07/02 03:19:43;;;;;;;;;4.33;4.33;;;;;16.23;100.00;101676.25;5065133;27;45413;-70
2022/07/02 03:22:08;;;;;;;;;6.33;4.00;;;;;16.19;100.00;101669.47;5068337;28;45371;-71
2022/07/02 03:24:34;;;;;;;;;7.67;4.33;;;;;16.18;100.00;101678.00;5069786;27;45350;-71
2022/07/02 03:26:59;;;;;;;;;4.67;4.67;;;;;16.15;100.00;101672.91;5074694;27;46227;-71
2022/07/02 03:29:25;;;;;;;;;4.33;4.00;;;;;16.11;100.00;101678.06;5074934;27;45350;-72
2022/07/02 03:31:50;;;;;;;;;7.00;5.33;;;;;16.11;100.00;101677.19;5075195;28;45781;-72
2022/07/02 03:34:15;;;;;;;;;6.33;5.67;;;;;16.08;100.00;101672.09;5088219;27;45376;-71
2022/07/02 03:36:41;;;;;;;;;5.33;5.33;;;;;16.04;100.00;101672.53;5075418;27;46036;-69
2022/07/02 03:39:06;;;;;;;;;7.67;6.33;;;;;16.03;100.00;101662.56;5063539;27;45838;-69
2022/07/02 03:41:32;;;;;;;;;7.67;6.33;;;;;16.05;100.00;101667.88;5092701;27;45417;-70
2022/07/02 03:43:57;;;;;;;;;4.00;4.00;;;;;16.02;100.00;101669.16;5059477;28;46966;-72
2022/07/02 03:46:22;;;;;;;;;5.33;5.33;;;;;16.00;100.00;101675.97;5056561;28;46787;-71
2022/07/02 03:48:48;;;;;;;;;6.67;4.33;;;;;15.96;100.00;101675.59;5084034;27;45794;-71
2022/07/02 03:51:13;;;;;;;;;3.67;3.67;;;;;15.96;100.00;101675.59;5086256;27;45748;-71
2022/07/02 03:53:39;;;;;;;;;4.00;4.00;;;;;15.95;100.00;101682.19;5071929;27;45689;-71
2022/07/02 03:56:04;;;;;;;;;5.33;4.67;;;;;15.97;100.00;101677.31;5051750;28;46071;-72
2022/07/02 03:58:32;;;;;;;;;4.00;4.00;;;;;15.94;100.00;101669.41;5068445;28;45737;-72
2022/07/02 04:00:58;;;;;;;;;6.33;5.00;;;;;16.13;100.00;101673.13;5069816;28;45609;-71
2022/07/02 04:03:23;;;;;;;;;5.67;5.67;;;;;16.32;100.00;101668.53;5068553;28;45959;-70
2022/07/02 04:05:49;;;;;;;;;6.67;6.00;;;;;16.52;100.00;101668.38;5066323;28;45735;-71
2022/07/02 04:08:15;;;;;;;;;3.67;3.67;;;;;16.76;100.00;101663.88;5060083;28;45638;-68
2022/07/02 04:10:40;;;;;;;;;4.33;4.33;;;;;17.08;100.00;101666.59;5069081;27;45588;-70
2022/07/02 04:13:06;;;;;;;;;0.00;0.00;;;;;17.43;100.00;101665.97;5077281;27;45748;-70
2022/07/02 04:15:32;;;;;;;;;4.00;4.00;;;;;17.82;100.00;101655.41;5059916;27;45702;-70
2022/07/02 04:17:57;;;;;;;;;7.00;5.67;;;;;18.23;100.00;101657.63;5054833;27;45710;-70
2022/07/02 04:20:23;;;;;;;;;3.33;3.33;;;;;18.61;100.00;101645.25;5059850;28;45527;-71
2022/07/02 04:22:48;;;;;;;;;7.00;4.67;;;;;19.02;100.00;101646.22;5074175;28;45401;-70
2022/07/02 04:25:14;;;;;;;;;7.67;5.00;;;;;19.46;100.00;101634.66;5077725;27;45678;-70
2022/07/02 04:27:39;;;;;;;;;3.33;3.33;;;;;19.98;100.00;101651.28;5074517;27;45771;-70
2022/07/02 04:30:05;;;;;;;;;6.33;4.67;;;;;20.50;100.00;101643.84;5075529;27;45369;-71
2022/07/02 04:32:30;;;;;;;;;7.33;4.33;;;;;21.02;100.00;101634.31;5073144;27;45844;-71
2022/07/02 04:34:56;;;;;;;;;5.00;5.00;;;;;21.42;100.00;101627.59;5073370;27;46562;-73
2022/07/02 04:37:21;;;;;;;;;5.67;5.67;;;;;21.92;100.00;101637.69;5074240;27;45395;-71
2022/07/02 04:39:47;;;;;;;;;4.33;4.33;;;;;22.40;100.00;101635.06;5054099;27;45661;-70
2022/07/02 04:42:12;;;;;;;;;3.67;3.67;;;;;22.84;100.00;101634.81;5071210;28;45836;-70
2022/07/02 04:44:37;;;;;;;;;4.00;4.00;;;;;23.31;100.00;101640.69;5070597;27;45714;-72
2022/07/02 04:47:03;;;;;;;;;3.00;3.00;;;;;23.75;100.00;101629.09;5074102;27;45641;-70
2022/07/02 04:49:32;;;;;;;;;6.00;5.00;;;;;24.24;100.00;101637.06;5069316;27;45345;-72
2022/07/02 04:51:58;;;;;;;;;3.67;3.67;;;;;24.77;100.00;101639.56;5072975;27;45488;-71
2022/07/02 04:54:23;;;;;;;;;6.00;5.00;;;;;25.26;100.00;101623.16;5066219;27;46582;-72
2022/07/02 04:56:48;;;;;;;;;4.00;4.00;;;;;25.79;100.00;101620.66;5073447;28;45831;-72
2022/07/02 04:59:14;;;;;;;;;4.33;4.33;;;;;26.30;100.00;101624.25;5058075;28;45786;-72
2022/07/02 05:01:39;;;;;;;;;5.00;5.00;;;;;26.77;100.00;101631.19;5074403;27;45403;-71
2022/07/02 05:04:05;;;;;;;;;4.00;4.00;;;;;27.24;98.67;101620.22;5069660;28;46030;-72
2022/07/02 05:06:31;;;;;;;;;7.33;7.00;;;;;27.78;94.99;101627.38;5058200;27;45931;-71
2022/07/02 05:08:56;;;;;;;;;3.67;3.33;;;;;28.40;90.25;101625.59;5057396;28;45983;-71
2022/07/02 05:11:22;;;;;;;;;6.33;5.33;;;;;28.94;86.62;101617.56;5064492;27;45676;-71
2022/07/02 05:13:47;;;;;;;;;3.67;3.67;;;;;29.45;81.68;101627.84;5058232;28;45651;-71
2022/07/02 05:16:12;;;;;;;;;5.33;5.00;;;;;30.06;78.09;101628.47;5059229;28;45354;-71
2022/07/02 05:18:38;;;;;;;;;5.67;5.00;;;;;30.65;73.46;101616.22;5065788;27;45738;-72
2022/07/02 05:21:05;;;;;;;;;6.00;5.00;;;;;31.15;69.05;101623.63;5060951;27;45686;-72
2022/07/02 05:23:30;;;;;;;;;3.67;3.67;;;;;31.80;64.47;101621.13;5062398;27;45419;-72
2022/07/02 05:25:56;;;;;;;;;3.67;3.67;;;;;32.41;60.20;101640.97;5061526;27;45491;-72
2022/07/02 05:28:21;;;;;;;;;6.00;6.00;;;;;33.03;56.64;101633.16;5064602;27;45506;-71
2022/07/02 05:30:46;;;;;;;;;6.33;6.33;;;;;33.42;52.66;101633.97;5050574;28;46148;-71
2022/07/02 05:33:12;;;;;;;;;6.00;5.00;;;;;33.85;49.71;101632.00;5067641;27;46451;-71
2022/07/02 05:35:37;;;;;;;;;3.50;3.50;;;;;34.38;48.53;101635.25;5069936;27;45723;-72
2022/07/02 05:38:03;;;;;;;;;3.25;3.25;;;;;34.74;45.69;101630.84;5040997;28;46020;-71
2022/07/02 05:40:29;;;;;;;;;6.00;4.33;;;;;35.18;43.31;101622.56;5062691;28;45457;-72
2022/07/02 05:42:55;;;;;;;;;6.33;6.33;;;;;35.41;42.55;101625.00;5065907;27;45831;-72
2022/07/02 05:45:20;;;;;;;;;3.67;3.67;;;;;35.71;41.41;101622.66;5072733;27;45758;-72
2022/07/02 05:47:46;;;;;;;;;10.67;5.67;;;;;36.10;39.50;101625.91;5060529;27;45917;-71
2022/07/02 05:50:11;;;;;;;;;5.25;3.00;;;;;36.50;38.02;101621.31;5058351;28;45436;-71
2022/07/02 05:52:38;;;;;;;;;5.00;4.50;;;;;36.88;36.46;101617.88;5060683;28;45934;-71
2022/07/02 05:55:04;;;;;;;;;7.00;5.67;;;;;37.28;35.57;101621.75;5054535;28;45473;-71
2022/07/02 05:57:29;;;;;;;;;8.00;6.00;;;;;37.68;34.81;101617.75;5059985;28;45720;-71
2022/07/02 05:59:56;;;;;;;;;5.00;5.00;;;;;37.96;34.01;101613.88;5064008;28;46014;-70
2022/07/02 06:02:22;;;;;;;;;6.67;6.67;;;;;38.35;32.20;101613.88;5047512;28;46027;-71
2022/07/02 06:04:48;;;;;;;;;5.33;5.33;;;;;38.57;31.75;101620.84;5065358;28;45498;-71
2022/07/02 06:09:57;;;;;;;;;7.00;5.00;;;;;39.05;31.05;101616.78;5061151;28;45875;-72
2022/07/02 06:12:23;;;;;;;;;7.33;5.67;;;;;39.37;30.15;101600.09;5065379;28;45951;-71
2022/07/02 06:14:48;;;;;;;;;7.33;5.67;;;;;39.90;29.61;101614.38;5048661;28;45866;-70
2022/07/02 06:17:14;;;;;;;;;5.67;5.67;;;;;40.29;28.30;101615.25;5064345;28;46064;-73
2022/07/02 06:19:39;;;;;;;;;6.33;5.00;;;;;40.65;28.13;101616.50;5060085;28;45871;-71
2022/07/02 06:22:05;;;;;;;;;6.00;6.00;;;;;41.15;25.96;101618.16;5063887;27;45933;-71
2022/07/02 06:24:31;;;;;;;;;8.33;7.67;;;;;41.40;26.17;101616.31;5063024;27;45383;-71
2022/07/02 06:26:56;;;;;;;;;8.00;8.00;;;;;41.83;25.49;101612.88;5059761;28;45571;-71
2022/07/02 06:29:22;;;;;;;;;6.00;6.00;;;;;42.16;24.95;101608.91;5062545;28;45622;-70
2022/07/02 06:31:48;;;;;;;;;6.00;5.67;;;;;42.52;24.76;101613.91;5054719;28;46008;-72
2022/07/02 06:34:13;;;;;;;;;9.00;7.00;;;;;42.73;24.36;101606.53;5054100;28;45561;-73
2022/07/02 06:36:39;;;;;;;;;8.33;8.00;;;;;42.96;23.82;101609.00;5064731;28;45405;-73
2022/07/02 06:39:04;;;;;;;;;8.67;7.33;;;;;43.05;23.40;101600.78;5060125;28;45724;-72
2022/07/02 06:44:13;;;;;;;;;4.67;4.67;;;;;43.50;22.69;101606.06;5058688;28;45933;-70
2022/07/02 06:46:39;;;;;;;;;7.33;7.33;;;;;43.83;22.37;101606.81;5072452;28;45342;-71
2022/07/02 06:49:04;;;;;;;;;8.67;8.67;;;;;43.71;22.17;101605.97;5071825;28;45354;-75
2022/07/02 06:51:30;;;;;;;;;9.67;9.67;;;;;43.65;22.49;101613.44;5072556;28;45694;-74
2022/07/02 06:54:00;;;;;;;;;10.00;10.00;;;;;43.78;22.11;101598.53;5044608;28;45699;-74
2022/07/02 06:56:31;;;;;;;;;10.00;9.33;;;;;44.01;21.53;101593.06;5062278;28;45525;-72
2022/07/02 06:58:57;;;;;;;;;7.33;7.33;;;;;44.19;21.34;101601.66;5060000;28;45734;-75
2022/07/02 07:01:23;;;;;;;;;9.00;8.67;;;;;44.40;21.37;101597.81;5067820;28;46514;-72
2022/07/02 07:03:49;;;;;;;;;11.67;9.33;;;;;44.61;21.37;101604.69;5051701;28;46003;-75
2022/07/02 07:06:14;;;;;;;;;6.67;6.67;;;;;44.83;20.36;101599.59;5067088;28;45882;-74
2022/07/02 07:08:39;;;;;;;;;8.00;8.00;;;;;45.01;19.87;101598.59;5062053;28;45831;-74
2022/07/02 07:11:05;;;;;;;;;11.33;6.67;;;;;45.41;19.85;101596.97;5070846;28;45520;-75
2022/07/02 07:13:30;;;;;;;;;5.00;5.00;;;;;45.84;18.59;101595.63;5064225;28;45803;-75
2022/07/02 07:15:56;;;;;;;;;4.67;4.00;;;;;46.21;17.75;101602.59;5074829;28;45582;-76
2022/07/02 07:18:21;;;;;;;;;5.00;5.00;;;;;46.12;16.64;101591.50;5075142;28;45834;-74
2022/07/02 07:20:49;;;;;;;;;3.00;3.00;;;;;46.21;16.08;101588.09;5057236;28;45991;-75
2022/07/02 07:23:14;;;;;;;;;1.67;1.67;;;;;46.12;16.23;101582.00;5057297;28;45467;-74
2022/07/02 07:25:40;;;;;;;;;1.00;1.00;;;;;46.16;16.14;101588.56;5055894;28;45340;-75
2022/07/02 07:28:05;;;;;;;;;2.00;2.00;;;;;46.35;16.08;101578.34;5057581;28;46929;-74
2022/07/02 07:30:31;;;;;;;;;3.33;1.33;;;;;46.66;15.05;101582.00;5046203;28;46300;-76
2022/07/02 07:32:56;;;;;;;;;2.00;1.50;;;;;46.66;15.39;101578.28;5050976;28;45451;-75
2022/07/02 07:35:22;;;;;;;;;1.00;1.00;;;;;47.00;15.80;101575.22;5074812;28;45447;-74
2022/07/02 07:37:59;;;;;;;;;3.00;2.00;;;;;47.58;15.07;101591.50;5062704;28;45928;-75
2022/07/02 07:40:26;;;;;;;;;1.33;1.33;;;;;47.93;14.55;101582.50;5046671;28;46593;-74
2022/07/02 07:42:51;;;;;;;;;3.00;2.00;;;;;48.32;13.97;101569.94;5059218;28;45572;-74
2022/07/02 07:45:17;;;;;;;;;1.67;1.67;;;;;48.29;13.41;101576.69;5060005;28;45380;-75
2022/07/02 07:47:42;;;;;;;;;2.00;2.00;;;;;48.15;13.58;101577.84;5072878;28;45376;-74
2022/07/02 07:50:08;;;;;;;;;1.00;1.00;;;;;48.03;13.58;101581.41;5071352;28;45486;-73
2022/07/02 07:52:34;;;;;;;;;0.00;0.00;;;;;47.73;13.61;101566.72;5064684;28;45767;-74
2022/07/02 07:54:59;;;;;;;;;2.67;1.67;;;;;47.90;13.41;101573.41;5055761;28;45755;-74
2022/07/02 07:57:24;;;;;;;;;0.00;0.00;;;;;47.78;13.51;101582.81;5074222;28;45808;-74
2022/07/02 07:59:50;;;;;;;;;0.00;0.00;;;;;47.59;13.85;101572.00;5073865;28;46021;-75
2022/07/02 08:02:15;;;;;;;;;0.50;0.50;;;;;47.68;13.80;101573.03;5055823;28;45432;-75
2022/07/02 08:04:41;;;;;;;;;2.00;0.00;;;;;47.81;13.16;101558.66;5074367;28;45760;-76
2022/07/02 08:07:07;;;;;;;;;0.00;0.00;;;;;48.01;13.18;101566.53;5072115;28;45553;-74
2022/07/02 08:09:32;;;;;;;;;0.00;0.00;;;;;48.26;12.81;101565.94;5068125;28;45789;-78
2022/07/02 08:11:58;;;;;;;;;1.00;1.00;;;;;47.93;13.40;101562.16;5046509;28;45388;-78
2022/07/02 08:14:23;;;;;;;;;1.00;1.00;;;;;47.61;13.45;101555.75;5072003;28;45476;-72
2022/07/02 08:16:49;;;;;;;;;1.00;1.00;;;;;47.52;13.56;101562.19;5074460;28;45756;-73
2022/07/02 08:19:14;;;;;;;;;1.00;1.00;;;;;47.30;13.30;101560.97;5056146;28;46264;-74
2022/07/02 08:21:40;;;;;;;;;1.00;1.00;;;;;47.32;13.66;101562.13;5074018;28;45389;-74
2022/07/02 08:24:05;;;;;;;;;1.00;1.00;;;;;47.83;13.42;101564.03;5055358;28;45674;-74
2022/07/02 08:26:31;;;;;;;;;0.00;0.00;;;;;48.20;12.95;101561.94;5074072;28;45580;-74
2022/07/02 08:28:56;;;;;;;;;0.00;0.00;;;;;48.62;13.04;101564.25;5067178;28;46202;-73
2022/07/02 08:31:22;;;;;;;;;0.00;0.00;;;;;49.26;12.45;101559.63;5054987;28;45333;-73
2022/07/02 08:33:47;;;;;;;;;0.00;0.00;;;;;49.74;12.80;101556.16;5062973;28;45509;-74
2022/07/02 08:36:12;;;;;;;;;1.00;0.00;;;;;50.03;11.72;101544.41;5071939;28;45703;-74
2022/07/02 08:38:38;;;;;;;;;0.00;0.00;;;;;50.23;11.71;101546.25;5071686;28;46264;-74
2022/07/02 08:41:04;;;;;;;;;0.67;0.00;;;;;50.01;11.62;101552.81;5055783;28;45718;-74
2022/07/02 08:43:35;;;;;;;;;0.00;0.00;;;;;50.04;12.30;101543.13;5071882;28;46505;-75
2022/07/02 08:46:03;;;;;;;;;0.00;0.00;;;;;50.65;11.79;101552.78;5056807;28;45582;-74
2022/07/02 08:48:30;;;;;;;;;0.00;0.00;;;;;51.09;11.55;101552.06;5073618;28;45873;-75
2022/07/02 08:50:56;;;;;;;;;0.33;0.33;;;;;51.35;10.97;101549.84;5073668;28;45673;-73
2022/07/02 08:53:22;;;;;;;;;0.00;0.00;;;;;51.86;11.19;101542.84;5074346;28;45354;-75
2022/07/02 08:55:50;;;;;;;;;1.00;0.00;;;;;52.23;10.45;101554.72;5072157;28;45878;-71
2022/07/02 08:58:17;;;;;;;;;0.67;0.67;;;;;52.49;10.48;101544.91;5073618;28;46580;-75
2022/07/02 09:00:43;;;;;;;;;0.00;0.00;;;;;52.82;10.58;101544.31;5073453;28;45643;-74
2022/07/02 09:03:09;;;;;;;;;0.33;0.33;;;;;53.01;10.45;101536.38;5073599;28;45526;-74
2022/07/02 09:05:37;;;;;;;;;0.00;0.00;;;;;53.55;9.80;101527.97;5073057;28;45448;-73
2022/07/02 09:08:05;;;;;;;;;0.00;0.00;;;;;53.83;10.17;101531.66;5072024;28;45476;-74
2022/07/02 09:10:31;;;;;;;;;0.33;0.33;;;;;54.12;9.52;101533.16;5072202;28;45436;-77
2022/07/02 09:12:58;;;;;;;;;0.00;0.00;;;;;54.41;10.04;101535.47;5073181;28;45416;-76
2022/07/02 09:15:23;;;;;;;;;0.00;0.00;;;;;54.69;9.43;101526.47;5065192;28;46162;-75
2022/07/02 09:17:49;;;;;;;;;7.67;5.67;;;;;54.92;9.97;101515.16;5065221;28;46063;-75
2022/07/02 09:20:15;;;;;;;;;0.00;0.00;;;;;55.47;9.42;101532.28;5072104;28;45351;-76
2022/07/02 09:22:53;;;;;;;;;4.00;4.00;;;;;55.82;9.53;101527.78;5065266;28;45822;-74
2022/07/02 09:25:25;;;;;;;;;0.33;0.33;;;;;55.84;8.92;101534.78;5067734;28;46618;-72
2022/07/02 09:27:59;;;;;;;;;0.00;0.00;;;;;55.96;9.19;101529.94;5067061;28;45872;-75
2022/07/02 09:30:30;;;;;;;;;0.00;0.00;;;;;55.95;9.04;101524.56;5072986;28;45380;-75
2022/07/02 09:35:53;;;;;;;;;0.00;0.00;;;;;55.57;8.54;101532.19;5017608;28;45748;-77
2022/07/02 09:38:18;;;;;;;;;0.67;0.67;;;;;55.29;8.71;101526.56;5063442;28;46120;-76
2022/07/02 09:40:53;;;;;;;;;0.00;0.00;;;;;55.23;8.73;101525.66;5066113;28;45464;-76
2022/07/02 09:43:45;;;;;;;;;0.00;0.00;;;;;55.71;8.99;101523.38;5071713;28;45508;-75
2022/07/02 09:46:18;;;;;;;;;0.00;0.00;;;;;56.29;8.58;101517.03;5042230;28;45939;-77
2022/07/02 09:48:45;;;;;;;;;0.33;0.33;;;;;56.72;7.99;101513.59;5068772;28;46355;-74
2022/07/02 09:51:11;;;;;;;;;0.00;0.00;;;;;56.67;8.30;101521.06;5071651;28;45664;-77
2022/07/02 09:53:55;;;;;;;;;0.00;0.00;;;;;56.74;7.97;101523.53;5070843;28;45824;-75
2022/07/02 09:56:24;;;;;;;;;0.00;0.00;;;;;56.66;8.42;101516.47;5063047;28;45640;-76
2022/07/02 09:58:51;;;;;;;;;0.00;0.00;;;;;56.77;8.18;101506.94;5063109;28;45863;-76
2022/07/02 10:01:20;;;;;;;;;0.33;0.33;;;;;56.76;7.96;101500.25;5067844;28;45586;-76
2022/07/02 10:03:51;;;;;;;;;0.00;0.00;;;;;56.86;7.80;101500.88;5069834;28;45766;-74
2022/07/02 10:06:17;;;;;;;;;0.00;0.00;;;;;56.44;7.84;101496.34;5061687;28;45490;-75
2022/07/02 10:08:43;;;;;;;;;1.67;1.67;;;;;56.17;8.40;101501.31;5059947;28;45974;-78
2022/07/02 10:11:11;;;;;;;;;0.00;0.00;;;;;55.75;8.44;101490.78;5068716;28;45535;-76
2022/07/02 10:13:37;;;;;;;;;0.00;0.00;;;;;54.63;9.21;101484.38;5068593;28;45816;-77
2022/07/02 10:16:04;;;;;;;;;0.00;0.00;;;;;54.47;9.02;101488.56;5067253;28;45751;-75
2022/07/02 10:18:30;;;;;;;;;0.00;0.00;;;;;54.16;8.96;101481.75;5049004;28;46175;-77
2022/07/02 10:20:57;;;;;;;;;0.33;0.00;;;;;52.94;9.21;101484.72;5068763;28;45570;-77
2022/07/02 10:23:23;;;;;;;;;0.00;0.00;;;;;51.64;10.11;101469.81;5065802;28;45702;-78
2022/07/02 10:25:50;;;;;;;;;0.00;0.00;;;;;51.22;9.75;101465.13;5069488;28;45739;-79
2022/07/02 10:28:16;;;;;;;;;0.00;0.00;;;;;50.74;9.91;101467.38;5055246;28;45843;-76
2022/07/02 10:30:42;;;;;;;;;0.00;0.00;;;;;50.03;10.88;101468.53;5062827;27;45422;-74
2022/07/02 10:33:10;;;;;;;;;0.00;0.00;;;;;49.31;11.08;101464.97;5047937;28;45554;-74
2022/07/02 10:35:37;;;;;;;;;0.00;0.00;;;;;49.02;11.50;101471.63;5065820;28;46103;-74
2022/07/02 10:38:03;;;;;;;;;0.00;0.00;;;;;48.82;11.82;101463.06;5055591;28;45643;-75
2022/07/02 10:40:28;;;;;;;;;0.00;0.00;;;;;48.81;11.52;101461.44;5064311;28;45531;-75
2022/07/02 10:42:59;;;;;;;;;3.00;3.00;;;;;48.83;11.41;101455.97;5059886;28;45765;-75
2022/07/02 10:45:25;;;;;;;;;1.00;1.00;;;;;49.17;11.25;101448.75;5063630;28;45963;-77
2022/07/02 10:47:56;;;;;;;;;8.33;7.00;;;;;49.59;10.95;101460.38;5064760;28;45725;-76
2022/07/02 10:50:26;;;;;;;;;3.33;2.67;;;;;49.65;11.12;101460.63;5064446;27;45818;-74
2022/07/02 10:52:52;;;;;;;;;6.00;6.00;;;;;49.83;11.08;101457.13;5065798;28;45483;-77
2022/07/02 10:55:30;;;;;;;;;4.00;2.67;;;;;50.16;11.67;101451.84;5067968;28;45911;-76
2022/07/02 10:57:57;;;;;;;;;1.67;1.67;;;;;50.43;10.58;101450.50;5066162;28;45538;-74
2022/07/02 11:00:33;;;;;;;;;1.33;1.33;;;;;50.58;11.51;101444.97;5065561;28;45484;-75
2022/07/02 11:03:28;;;;;;;;;1.00;1.00;;;;;50.56;11.11;101440.88;5066023;27;45473;-76
2022/07/02 11:05:57;;;;;;;;;0.00;0.00;;;;;50.39;10.72;101440.25;5066561;28;45440;-78
2022/07/02 11:08:43;;;;;;;;;0.67;0.67;;;;;50.19;11.12;101447.16;5065683;28;45892;-76
2022/07/02 11:11:11;;;;;;;;;0.67;0.67;;;;;49.73;10.60;101450.34;5052706;28;45803;-79
2022/07/02 11:13:47;;;;;;;;;1.00;1.00;;;;;49.45;10.44;101449.97;5052403;28;45772;-79
2022/07/02 11:16:27;;;;;;;;;0.67;0.67;;;;;48.78;10.73;101439.03;5071068;28;46124;-77
2022/07/02 11:18:55;;;;;;;;;1.00;1.00;;;;;48.18;11.55;101437.31;5072761;28;46213;-75
2022/07/02 11:21:23;;;;;;;;;1.00;0.00;;;;;47.65;12.02;101433.59;5072718;28;45789;-78
2022/07/02 11:23:49;;;;;;;;;0.00;0.00;;;;;47.10;12.28;101444.75;5074483;28;45579;-78
2022/07/02 11:26:22;;;;;;;;;0.00;0.00;;;;;45.95;13.11;101439.75;5074220;28;45724;-76
2022/07/02 11:28:49;;;;;;;;;2.00;2.00;;;;;44.89;13.46;101446.53;5075031;28;46009;-77
2022/07/02 11:31:16;;;;;;;;;1.00;1.00;;;;;43.93;13.98;101443.22;5065138;28;45381;-75